createdAt,value
2022-10-20T00:00:33.083Z,9.52
2022-10-20T00:03:35.279Z,9.53
2022-10-20T00:06:36.983Z,9.53
2022-10-20T00:09:38.640Z,9.50
2022-10-20T00:12:40.238Z,9.57
2022-10-20T00:15:49.211Z,9.61
2022-10-20T00:18:51.047Z,9.63
2022-10-20T00:21:52.632Z,9.70
2022-10-20T00:24:54.262Z,9.74
2022-10-20T00:27:55.911Z,9.75
2022-10-20T00:30:57.728Z,9.82
2022-10-20T00:33:59.354Z,9.88
2022-10-20T00:37:00.951Z,9.91
2022-10-20T00:40:02.589Z,9.97
2022-10-20T00:43:04.247Z,9.95
2022-10-20T00:46:06.027Z,10.03
2022-10-20T00:49:24.778Z,10.09
2022-10-20T00:52:26.506Z,10.10
2022-10-20T00:55:34.107Z,10.19
2022-10-20T00:58:35.737Z,10.23
2022-10-20T01:01:39.050Z,10.26
2022-10-20T01:04:41.739Z,10.28
2022-10-20T01:07:43.334Z,10.29
2022-10-20T01:11:05.291Z,10.34
2022-10-20T01:14:36.429Z,10.38
2022-10-20T01:18:05.000Z,10.41
2022-10-20T01:21:17.817Z,10.44
2022-10-20T01:24:30.715Z,10.46
2022-10-20T01:27:42.096Z,10.39
2022-10-20T01:30:54.413Z,10.44
2022-10-20T01:34:19.080Z,10.47
2022-10-20T01:37:48.342Z,10.55
2022-10-20T01:41:08.558Z,10.56
2022-10-20T01:44:14.542Z,10.54
2022-10-20T01:47:17.228Z,10.55
2022-10-20T01:50:19.858Z,10.60
2022-10-20T01:53:21.530Z,10.64
2022-10-20T01:56:42.183Z,10.68
2022-10-20T02:00:02.588Z,10.70
2022-10-20T02:03:13.373Z,10.73
2022-10-20T02:06:42.354Z,10.77
2022-10-20T02:09:57.063Z,10.79
2022-10-20T02:13:04.111Z,10.81
2022-10-20T02:16:13.471Z,10.84
2022-10-20T02:19:19.378Z,10.83
2022-10-20T02:22:22.586Z,10.90
2022-10-20T02:25:27.183Z,10.89
2022-10-20T02:28:29.125Z,10.93
2022-10-20T02:31:31.493Z,10.95
2022-10-20T02:34:33.154Z,10.99
2022-10-20T02:37:35.063Z,11.01
2022-10-20T02:40:36.994Z,11.00
2022-10-20T02:43:39.110Z,11.00
2022-10-20T02:46:40.772Z,11.04
2022-10-20T02:49:42.503Z,11.06
2022-10-20T02:52:44.202Z,11.06
2022-10-20T02:55:45.785Z,11.01
2022-10-20T02:58:47.446Z,11.05
2022-10-20T03:01:49.078Z,11.10
2022-10-20T03:04:50.744Z,11.08
2022-10-20T03:07:53.041Z,11.12
2022-10-20T03:10:54.568Z,11.14
2022-10-20T03:13:56.120Z,11.12
2022-10-20T03:16:57.762Z,11.13
2022-10-20T03:19:59.415Z,11.11
2022-10-20T03:23:01.093Z,11.16
2022-10-20T03:26:08.182Z,11.17
2022-10-20T03:29:09.920Z,11.16
2022-10-20T03:32:11.605Z,11.19
2022-10-20T03:35:13.534Z,11.16
2022-10-20T03:38:15.162Z,11.16
2022-10-20T03:41:16.955Z,11.19
2022-10-20T03:44:18.609Z,11.18
2022-10-20T03:47:20.201Z,11.19
2022-10-20T03:50:24.122Z,11.18
2022-10-20T03:53:25.863Z,11.13
2022-10-20T03:56:27.480Z,11.18
2022-10-20T03:59:30.475Z,11.15
2022-10-20T04:02:39.035Z,11.19
2022-10-20T04:05:41.086Z,11.19
2022-10-20T04:08:42.812Z,11.20
2022-10-20T04:11:44.708Z,11.16
2022-10-20T04:14:47.963Z,11.11
2022-10-20T04:17:52.732Z,11.16
2022-10-20T04:20:55.575Z,11.12
2022-10-20T04:23:57.143Z,11.12
2022-10-20T04:26:59.658Z,11.05
2022-10-20T04:30:01.540Z,11.03
2022-10-20T04:33:03.224Z,10.99
2022-10-20T04:36:07.669Z,11.05
2022-10-20T04:39:09.576Z,10.98
2022-10-20T04:42:13.600Z,10.94
2022-10-20T04:45:17.574Z,10.92
2022-10-20T04:48:19.948Z,10.92
2022-10-20T04:51:23.114Z,10.91
2022-10-20T04:54:24.767Z,10.92
2022-10-20T04:57:28.347Z,10.93
2022-10-20T05:00:30.143Z,10.83
2022-10-20T05:03:31.790Z,10.90
2022-10-20T05:06:46.484Z,10.91
2022-10-20T05:09:48.417Z,10.77
2022-10-20T05:12:50.146Z,10.84
2022-10-20T05:15:53.019Z,10.80
2022-10-20T05:18:56.036Z,10.88
2022-10-20T05:21:58.317Z,10.79
2022-10-20T05:25:12.723Z,10.83
2022-10-20T05:28:21.784Z,10.78
2022-10-20T05:31:23.943Z,10.79
2022-10-20T05:34:25.670Z,10.77
2022-10-20T05:37:27.400Z,10.79
2022-10-20T05:40:29.099Z,10.76
2022-10-20T05:43:30.652Z,10.67
2022-10-20T05:46:34.935Z,10.69
2022-10-20T05:49:36.543Z,10.64
2022-10-20T05:52:38.467Z,10.62
2022-10-20T05:55:40.224Z,10.59
2022-10-20T05:58:43.571Z,10.56
2022-10-20T06:01:48.336Z,10.52
2022-10-20T06:04:50.558Z,10.50
2022-10-20T06:07:54.210Z,10.49
2022-10-20T06:10:55.951Z,10.47
2022-10-20T06:13:57.744Z,10.48
2022-10-20T06:16:59.354Z,10.46
2022-10-20T06:20:00.940Z,10.40
2022-10-20T06:23:02.501Z,10.39
2022-10-20T06:26:09.998Z,10.37
2022-10-20T06:29:14.230Z,10.31
2022-10-20T06:32:18.278Z,10.30
2022-10-20T06:35:19.978Z,10.29
2022-10-20T06:38:21.480Z,10.27
2022-10-20T06:41:24.052Z,10.27
2022-10-20T06:44:25.704Z,10.29
2022-10-20T06:47:30.310Z,10.31
2022-10-20T06:50:34.141Z,10.34
2022-10-20T06:53:36.309Z,10.33
2022-10-20T06:56:39.205Z,10.34
2022-10-20T06:59:40.760Z,10.37
2022-10-20T07:02:42.273Z,10.37
2022-10-20T07:05:43.780Z,10.38
2022-10-20T07:08:45.852Z,10.39
2022-10-20T07:11:51.894Z,10.40
2022-10-20T07:14:53.466Z,10.37
2022-10-20T07:17:54.957Z,10.41
2022-10-20T07:21:01.809Z,10.43
2022-10-20T07:24:05.618Z,10.43
2022-10-20T07:27:07.421Z,10.45
2022-10-20T07:30:09.214Z,10.43
2022-10-20T07:33:10.864Z,10.47
2022-10-20T07:36:24.634Z,10.49
2022-10-20T07:39:26.974Z,10.50
2022-10-20T07:42:29.315Z,10.49
2022-10-20T07:45:31.108Z,10.52
2022-10-20T07:48:33.642Z,10.54
2022-10-20T07:51:35.297Z,10.57
2022-10-20T07:54:37.163Z,10.60
2022-10-20T07:57:38.708Z,10.60
2022-10-20T08:03:46.947Z,10.64
2022-10-20T08:06:48.733Z,10.66
2022-10-20T08:09:50.399Z,10.67
2022-10-20T08:12:51.954Z,10.65
2022-10-20T08:15:54.037Z,10.63
2022-10-20T08:19:01.185Z,10.67
2022-10-20T08:22:02.949Z,10.70
2022-10-20T08:25:05.009Z,10.74
2022-10-20T08:28:07.023Z,10.76
2022-10-20T08:31:08.812Z,10.77
2022-10-20T08:34:10.443Z,10.79
2022-10-20T08:37:12.112Z,10.72
2022-10-20T08:40:28.159Z,10.82
2022-10-20T08:43:31.671Z,10.76
2022-10-20T08:46:37.133Z,10.74
2022-10-20T08:49:38.802Z,10.79
2022-10-20T08:52:42.221Z,10.82
2022-10-20T08:55:44.864Z,10.83
2022-10-20T08:58:46.602Z,10.80
2022-10-20T09:01:48.257Z,10.82
2022-10-20T09:04:55.362Z,10.79
2022-10-20T09:07:57.328Z,10.82
2022-10-20T09:10:59.693Z,10.82
2022-10-20T09:14:01.241Z,10.86
2022-10-20T09:17:06.028Z,10.92
2022-10-20T09:20:21.714Z,10.89
2022-10-20T09:23:44.431Z,10.94
2022-10-20T09:27:04.992Z,10.98
2022-10-20T09:30:23.111Z,11.01
2022-10-20T09:33:33.770Z,11.04
2022-10-20T09:36:35.847Z,11.04
2022-10-20T09:39:47.674Z,11.08
2022-10-20T09:43:15.267Z,11.09
2022-10-20T09:46:21.590Z,11.11
2022-10-20T09:49:36.562Z,11.10
2022-10-20T09:52:47.697Z,11.09
2022-10-20T09:55:51.534Z,11.04
2022-10-20T09:58:54.420Z,11.01
2022-10-20T10:02:23.352Z,11.03
2022-10-20T10:05:33.125Z,11.07
2022-10-20T10:08:47.470Z,11.07
2022-10-20T10:11:58.055Z,11.02
2022-10-20T10:15:05.650Z,11.06
2022-10-20T10:18:22.889Z,11.09
2022-10-20T10:21:24.473Z,11.11
2022-10-20T10:24:48.641Z,11.14
2022-10-20T10:28:21.090Z,11.23
2022-10-20T10:31:24.614Z,11.27
2022-10-20T10:34:38.623Z,11.36
2022-10-20T10:37:42.678Z,11.46
2022-10-20T10:41:06.474Z,11.47
2022-10-20T10:44:39.039Z,11.44
2022-10-20T10:47:52.717Z,11.54
2022-10-20T10:50:58.811Z,11.62
2022-10-20T10:54:14.641Z,11.70
2022-10-20T10:57:29.870Z,11.78
2022-10-20T11:01:03.809Z,11.84
2022-10-20T11:04:46.948Z,11.85
2022-10-20T11:08:18.899Z,11.90
2022-10-20T11:12:04.992Z,12.00
2022-10-20T11:15:24.371Z,11.98
2022-10-20T11:18:52.321Z,12.02
2022-10-20T11:22:20.418Z,12.12
2022-10-20T11:25:33.187Z,12.15
2022-10-20T11:28:44.324Z,12.19
2022-10-20T11:32:03.578Z,12.20
2022-10-20T11:35:21.703Z,12.24
2022-10-20T11:38:48.083Z,12.24
2022-10-20T11:41:58.029Z,12.34
2022-10-20T11:45:01.714Z,12.41
2022-10-20T11:48:18.749Z,12.47
2022-10-20T11:51:32.177Z,12.52
2022-10-20T11:54:53.955Z,12.58
2022-10-20T11:58:29.231Z,12.62
2022-10-20T12:01:44.721Z,12.69
2022-10-20T12:05:04.895Z,12.81
2022-10-20T12:08:29.829Z,12.87
2022-10-20T12:11:51.556Z,12.98
2022-10-20T12:14:59.687Z,13.08
2022-10-20T12:18:05.698Z,13.13
2022-10-20T12:21:10.449Z,13.19
2022-10-20T12:24:30.074Z,13.28
2022-10-20T12:27:32.844Z,13.34
2022-10-20T12:30:43.158Z,13.36
2022-10-20T12:33:50.767Z,13.38
2022-10-20T12:37:16.797Z,13.41
2022-10-20T12:40:26.032Z,13.50
2022-10-20T12:43:48.785Z,13.52
2022-10-20T12:47:23.658Z,13.57
2022-10-20T12:50:42.758Z,13.57
2022-10-20T12:53:54.990Z,13.62
2022-10-20T12:57:00.773Z,13.67
2022-10-20T13:00:03.720Z,13.70
2022-10-20T13:03:37.210Z,13.72
2022-10-20T13:06:40.319Z,13.75
2022-10-20T13:09:56.381Z,13.74
2022-10-20T13:13:03.440Z,13.76
2022-10-20T13:16:15.365Z,13.79
2022-10-20T13:19:22.752Z,13.84
2022-10-20T13:22:38.971Z,13.83
2022-10-20T13:25:45.634Z,13.84
2022-10-20T13:28:49.680Z,13.84
2022-10-20T13:35:29.776Z,13.80
2022-10-20T13:38:38.347Z,13.87
2022-10-20T13:41:49.256Z,13.86
2022-10-20T13:45:07.725Z,13.88
2022-10-20T13:48:29.293Z,13.86
2022-10-20T13:51:35.184Z,13.86
2022-10-20T13:54:40.330Z,13.85
2022-10-20T13:57:54.949Z,13.84
2022-10-20T14:01:27.606Z,13.88
2022-10-20T14:04:31.165Z,13.90
2022-10-20T14:07:40.700Z,13.90
2022-10-20T14:10:48.518Z,13.92
2022-10-20T14:13:50.820Z,13.95
2022-10-20T14:16:57.360Z,13.98
2022-10-20T14:20:17.541Z,14.01
2022-10-20T14:23:19.431Z,14.02
2022-10-20T14:26:22.638Z,14.05
2022-10-20T14:29:28.028Z,14.08
2022-10-20T14:32:31.587Z,14.11
2022-10-20T14:35:41.179Z,14.11
2022-10-20T14:38:47.865Z,14.12
2022-10-20T14:41:49.450Z,14.12
2022-10-20T14:44:52.868Z,14.11
2022-10-20T14:47:57.489Z,14.13
2022-10-20T14:50:59.068Z,14.15
2022-10-20T14:54:19.358Z,14.13
2022-10-20T14:57:20.837Z,14.11
2022-10-20T15:00:33.434Z,14.12
2022-10-20T15:03:36.424Z,14.09
2022-10-20T15:06:38.005Z,14.10
2022-10-20T15:09:47.037Z,14.10
2022-10-20T15:12:52.087Z,14.06
2022-10-20T15:15:54.314Z,14.09
2022-10-20T15:19:34.175Z,14.09
2022-10-20T15:22:35.978Z,14.06
2022-10-20T15:25:42.302Z,14.04
2022-10-20T15:28:46.542Z,14.03
2022-10-20T15:31:48.039Z,13.99
2022-10-20T15:34:49.569Z,13.95
2022-10-20T15:37:54.642Z,13.90
2022-10-20T15:40:56.214Z,13.85
2022-10-20T15:44:07.477Z,13.84
2022-10-20T15:47:09.021Z,13.83
2022-10-20T15:50:10.659Z,13.82
2022-10-20T15:53:12.452Z,13.78
2022-10-20T15:56:14.045Z,13.75
2022-10-20T15:59:15.555Z,13.75
2022-10-20T16:02:17.126Z,13.68
2022-10-20T16:05:21.361Z,13.67
2022-10-20T16:08:22.875Z,13.63
2022-10-20T16:11:24.444Z,13.60
2022-10-20T16:14:25.999Z,13.57
2022-10-20T16:17:27.908Z,13.53
2022-10-20T16:20:29.622Z,13.54
2022-10-20T16:23:31.708Z,13.50
2022-10-20T16:26:33.254Z,13.48
2022-10-20T16:29:34.819Z,13.46
2022-10-20T16:32:37.029Z,13.43
2022-10-20T16:35:44.877Z,13.41
2022-10-20T16:38:46.425Z,13.39
2022-10-20T16:41:48.018Z,13.36
2022-10-20T16:44:49.551Z,13.33
2022-10-20T16:47:51.289Z,13.33
2022-10-20T16:50:52.866Z,13.29
2022-10-20T16:53:57.283Z,13.30
2022-10-20T16:57:01.205Z,13.25
2022-10-20T17:00:03.248Z,13.26
2022-10-20T17:03:04.853Z,13.25
2022-10-20T17:06:07.603Z,13.24
2022-10-20T17:09:09.540Z,13.16
2022-10-20T17:12:11.285Z,13.22
2022-10-20T17:15:12.990Z,13.13
2022-10-20T17:18:14.650Z,13.15
2022-10-20T17:21:16.526Z,13.17
2022-10-20T17:24:18.074Z,13.13
2022-10-20T17:27:19.653Z,13.10
2022-10-20T17:30:21.180Z,13.15
2022-10-20T17:33:32.024Z,13.15
2022-10-20T17:36:33.611Z,13.13
2022-10-20T17:39:35.158Z,13.03
2022-10-20T17:42:37.302Z,13.09
2022-10-20T17:45:39.111Z,13.06
2022-10-20T17:48:40.878Z,13.03
2022-10-20T17:51:44.186Z,13.01
2022-10-20T17:54:45.754Z,13.02
2022-10-20T17:57:47.349Z,13.01
2022-10-20T18:00:56.679Z,12.99
2022-10-20T18:04:07.466Z,12.97
2022-10-20T18:07:09.325Z,12.96
2022-10-20T18:10:11.876Z,12.93
2022-10-20T18:13:13.522Z,12.93
2022-10-20T18:16:17.849Z,12.92
2022-10-20T18:19:19.647Z,12.89
2022-10-20T18:22:21.288Z,12.87
2022-10-20T18:25:22.823Z,12.85
2022-10-20T18:28:25.141Z,12.82
2022-10-20T18:31:30.522Z,12.80
2022-10-20T18:34:32.351Z,12.79
2022-10-20T18:37:33.898Z,12.74
2022-10-20T18:40:35.523Z,12.69
2022-10-20T18:43:37.405Z,12.67
2022-10-20T18:46:39.990Z,12.67
2022-10-20T18:49:41.498Z,12.65
2022-10-20T18:52:43.008Z,12.61
2022-10-20T18:55:44.521Z,12.61
2022-10-20T18:58:57.938Z,12.55
2022-10-20T19:01:59.461Z,12.54
2022-10-20T19:05:02.855Z,12.51
2022-10-20T19:08:04.809Z,12.47
2022-10-20T19:11:09.254Z,12.46
2022-10-20T19:14:11.944Z,12.45
2022-10-20T19:17:13.573Z,12.42
2022-10-20T19:20:15.077Z,12.37
2022-10-20T19:23:16.662Z,12.35
2022-10-20T19:26:22.409Z,12.31
2022-10-20T19:29:24.411Z,12.31
2022-10-20T19:32:25.925Z,12.28
2022-10-20T19:35:27.625Z,12.26
2022-10-20T19:38:29.192Z,12.25
2022-10-20T19:41:30.786Z,12.24
2022-10-20T19:44:32.649Z,12.27
2022-10-20T19:47:36.771Z,12.26
2022-10-20T19:50:38.300Z,12.26
2022-10-20T19:53:40.385Z,12.24
2022-10-20T19:56:42.679Z,12.21
2022-10-20T19:59:44.216Z,12.24
2022-10-20T20:02:45.778Z,12.20
2022-10-20T20:05:48.429Z,12.25
2022-10-20T20:08:54.704Z,12.21
2022-10-20T20:11:56.535Z,12.25
2022-10-20T20:14:58.115Z,12.18
2022-10-20T20:17:59.653Z,12.26
2022-10-20T20:21:03.682Z,12.28
2022-10-20T20:24:05.539Z,12.28
2022-10-20T20:27:07.086Z,12.26
2022-10-20T20:30:08.884Z,12.28
2022-10-20T20:33:11.228Z,12.28
2022-10-20T20:36:12.993Z,12.28
2022-10-20T20:39:14.558Z,12.27
2022-10-20T20:42:16.400Z,12.29
2022-10-20T20:45:17.897Z,12.28
2022-10-20T20:48:19.446Z,12.28
2022-10-20T20:51:21.105Z,12.20
2022-10-20T20:54:22.980Z,12.24
2022-10-20T20:57:24.926Z,12.23
2022-10-20T21:00:26.788Z,12.23
2022-10-20T21:03:29.227Z,12.21
2022-10-20T21:06:49.368Z,12.20
2022-10-20T21:09:53.781Z,12.21
2022-10-20T21:12:55.303Z,12.19
2022-10-20T21:16:10.310Z,12.18
2022-10-20T21:19:11.969Z,12.21
2022-10-20T21:22:13.517Z,12.24
2022-10-20T21:25:15.043Z,12.25
2022-10-20T21:28:16.600Z,12.24
2022-10-20T21:31:20.441Z,12.26
2022-10-20T21:34:22.028Z,12.28
2022-10-20T21:37:23.645Z,12.27
2022-10-20T21:40:25.191Z,12.29
2022-10-20T21:43:26.719Z,12.28
2022-10-20T21:46:33.851Z,12.29
2022-10-20T21:49:35.631Z,12.29
2022-10-20T21:52:39.116Z,12.28
2022-10-20T21:55:40.803Z,12.19
2022-10-20T21:58:43.553Z,12.27
2022-10-20T22:01:46.212Z,12.21
2022-10-20T22:04:47.740Z,12.26
2022-10-20T22:07:49.251Z,12.26
2022-10-20T22:10:50.801Z,12.26
2022-10-20T22:13:52.433Z,12.23
2022-10-20T22:16:55.594Z,12.20
2022-10-20T22:19:57.179Z,12.22
2022-10-20T22:22:58.762Z,12.25
2022-10-20T22:26:00.390Z,12.17
2022-10-20T22:29:03.863Z,12.22
2022-10-20T22:32:05.531Z,12.22
2022-10-20T22:35:07.747Z,12.23
2022-10-20T22:38:09.310Z,12.24
2022-10-20T22:41:11.529Z,12.24
2022-10-20T22:44:13.241Z,12.23
2022-10-20T22:47:14.816Z,12.21
2022-10-20T22:50:16.622Z,12.23
2022-10-20T22:53:18.213Z,12.16
2022-10-20T22:56:22.865Z,12.22
2022-10-20T22:59:24.596Z,12.14
2022-10-20T23:02:29.146Z,12.20
2022-10-20T23:05:30.942Z,12.19
2022-10-20T23:08:32.815Z,12.18
2022-10-20T23:11:34.508Z,12.19
2022-10-20T23:14:36.007Z,12.19
2022-10-20T23:17:37.913Z,12.17
2022-10-20T23:20:40.115Z,12.17
2022-10-20T23:23:41.825Z,12.18
2022-10-20T23:26:43.643Z,12.12
2022-10-20T23:29:45.134Z,12.15
2022-10-20T23:32:46.629Z,12.11
2022-10-20T23:35:48.178Z,12.08
2022-10-20T23:38:49.872Z,12.07
2022-10-20T23:41:51.366Z,12.02
2022-10-20T23:44:52.834Z,12.08
2022-10-20T23:47:54.355Z,12.09
2022-10-20T23:50:56.137Z,12.10
2022-10-20T23:53:57.846Z,12.08
2022-10-20T23:56:59.415Z,12.10
